sensor_id;sensor_type;location;lat;lon;timestamp;P1;durP1;ratioP1;P2;durP2;ratioP2
17451;SDS011;8843;48.838;9.324;2024-01-30T00:00:36;7.57;;;6.10;;
17451;SDS011;8843;48.838;9.324;2024-01-30T00:03:03;8.20;;;6.40;;
17451;SDS011;8843;48.838;9.324;2024-01-30T00:05:30;9.80;;;6.17;;
17451;SDS011;8843;48.838;9.324;2024-01-30T00:07:59;7.83;;;5.60;;
17451;SDS011;8843;48.838;9.324;2024-01-30T00:10:26;9.60;;;6.20;;
17451;SDS011;8843;48.838;9.324;2024-01-30T00:12:52;7.40;;;5.77;;
17451;SDS011;8843;48.838;9.324;2024-01-30T00:15:19;9.93;;;6.30;;
17451;SDS011;8843;48.838;9.324;2024-01-30T00:17:46;8.17;;;5.83;;
17451;SDS011;8843;48.838;9.324;2024-01-30T00:20:13;8.63;;;6.30;;
17451;SDS011;8843;48.838;9.324;2024-01-30T00:22:40;9.97;;;7.57;;
17451;SDS011;8843;48.838;9.324;2024-01-30T00:25:08;9.17;;;7.10;;
17451;SDS011;8843;48.838;9.324;2024-01-30T00:27:35;9.50;;;7.17;;
17451;SDS011;8843;48.838;9.324;2024-01-30T00:30:02;10.67;;;7.13;;
17451;SDS011;8843;48.838;9.324;2024-01-30T00:32:30;9.77;;;7.50;;
17451;SDS011;8843;48.838;9.324;2024-01-30T00:34:56;10.70;;;6.87;;
17451;SDS011;8843;48.838;9.324;2024-01-30T00:37:23;11.10;;;8.23;;
17451;SDS011;8843;48.838;9.324;2024-01-30T00:39:50;14.07;;;7.93;;
17451;SDS011;8843;48.838;9.324;2024-01-30T00:42:18;10.70;;;7.70;;
17451;SDS011;8843;48.838;9.324;2024-01-30T00:44:46;10.47;;;7.13;;
17451;SDS011;8843;48.838;9.324;2024-01-30T00:47:13;9.57;;;6.53;;
17451;SDS011;8843;48.838;9.324;2024-01-30T00:49:39;10.53;;;6.80;;
17451;SDS011;8843;48.838;9.324;2024-01-30T00:52:06;11.50;;;7.27;;
17451;SDS011;8843;48.838;9.324;2024-01-30T00:54:33;9.50;;;7.43;;
17451;SDS011;8843;48.838;9.324;2024-01-30T00:57:00;12.03;;;7.40;;
17451;SDS011;8843;48.838;9.324;2024-01-30T00:59:28;10.93;;;6.93;;
17451;SDS011;8843;48.838;9.324;2024-01-30T01:01:55;11.27;;;7.20;;
17451;SDS011;8843;48.838;9.324;2024-01-30T01:04:22;20.33;;;8.30;;
17451;SDS011;8843;48.838;9.324;2024-01-30T01:06:49;9.83;;;7.00;;
17451;SDS011;8843;48.838;9.324;2024-01-30T01:09:16;11.00;;;6.83;;
17451;SDS011;8843;48.838;9.324;2024-01-30T01:11:43;11.17;;;7.53;;
17451;SDS011;8843;48.838;9.324;2024-01-30T01:14:10;11.17;;;7.27;;
17451;SDS011;8843;48.838;9.324;2024-01-30T01:16:38;9.87;;;7.20;;
17451;SDS011;8843;48.838;9.324;2024-01-30T01:19:05;12.23;;;7.23;;
17451;SDS011;8843;48.838;9.324;2024-01-30T01:21:31;10.67;;;6.77;;
17451;SDS011;8843;48.838;9.324;2024-01-30T01:23:58;9.50;;;6.67;;
17451;SDS011;8843;48.838;9.324;2024-01-30T01:26:25;10.37;;;6.63;;
17451;SDS011;8843;48.838;9.324;2024-01-30T01:28:52;8.67;;;6.73;;
17451;SDS011;8843;48.838;9.324;2024-01-30T01:31:19;10.23;;;7.03;;
17451;SDS011;8843;48.838;9.324;2024-01-30T01:33:51;10.53;;;6.83;;
17451;SDS011;8843;48.838;9.324;2024-01-30T01:36:17;7.53;;;6.20;;
17451;SDS011;8843;48.838;9.324;2024-01-30T01:38:44;8.43;;;5.93;;
17451;SDS011;8843;48.838;9.324;2024-01-30T01:41:11;8.10;;;6.40;;
17451;SDS011;8843;48.838;9.324;2024-01-30T01:43:38;10.10;;;6.60;;
17451;SDS011;8843;48.838;9.324;2024-01-30T01:46:05;10.53;;;6.90;;
17451;SDS011;8843;48.838;9.324;2024-01-30T01:48:33;7.50;;;6.67;;
17451;SDS011;8843;48.838;9.324;2024-01-30T01:51:01;8.53;;;6.10;;
17451;SDS011;8843;48.838;9.324;2024-01-30T01:53:28;8.00;;;6.57;;
17451;SDS011;8843;48.838;9.324;2024-01-30T01:55:55;8.77;;;6.17;;
17451;SDS011;8843;48.838;9.324;2024-01-30T01:58:23;7.83;;;6.00;;
17451;SDS011;8843;48.838;9.324;2024-01-30T02:00:54;10.60;;;6.53;;
17451;SDS011;8843;48.838;9.324;2024-01-30T02:03:22;10.23;;;6.20;;
17451;SDS011;8843;48.838;9.324;2024-01-30T02:05:49;10.13;;;6.90;;
17451;SDS011;8843;48.838;9.324;2024-01-30T02:08:18;8.90;;;6.70;;
17451;SDS011;8843;48.838;9.324;2024-01-30T02:10:45;11.33;;;6.50;;
17451;SDS011;8843;48.838;9.324;2024-01-30T02:13:12;8.53;;;6.20;;
17451;SDS011;8843;48.838;9.324;2024-01-30T02:15:39;8.53;;;5.73;;
17451;SDS011;8843;48.838;9.324;2024-01-30T02:18:06;8.53;;;5.70;;
17451;SDS011;8843;48.838;9.324;2024-01-30T02:20:34;8.67;;;6.27;;
17451;SDS011;8843;48.838;9.324;2024-01-30T02:23:03;7.80;;;6.00;;
17451;SDS011;8843;48.838;9.324;2024-01-30T02:25:33;10.23;;;6.00;;
17451;SDS011;8843;48.838;9.324;2024-01-30T02:28:02;8.33;;;6.07;;
17451;SDS011;8843;48.838;9.324;2024-01-30T02:30:29;9.10;;;6.00;;
17451;SDS011;8843;48.838;9.324;2024-01-30T02:32:56;10.73;;;6.47;;
17451;SDS011;8843;48.838;9.324;2024-01-30T02:35:23;12.53;;;6.83;;
17451;SDS011;8843;48.838;9.324;2024-01-30T02:37:49;10.23;;;6.43;;
17451;SDS011;8843;48.838;9.324;2024-01-30T02:40:18;10.40;;;6.43;;
17451;SDS011;8843;48.838;9.324;2024-01-30T02:42:44;9.40;;;6.73;;
17451;SDS011;8843;48.838;9.324;2024-01-30T02:45:12;7.23;;;5.87;;
17451;SDS011;8843;48.838;9.324;2024-01-30T02:47:39;7.37;;;5.63;;
17451;SDS011;8843;48.838;9.324;2024-01-30T02:50:07;8.20;;;6.13;;
17451;SDS011;8843;48.838;9.324;2024-01-30T02:52:34;8.07;;;5.63;;
17451;SDS011;8843;48.838;9.324;2024-01-30T02:55:01;8.23;;;6.07;;
17451;SDS011;8843;48.838;9.324;2024-01-30T02:57:30;9.30;;;6.27;;
17451;SDS011;8843;48.838;9.324;2024-01-30T02:59:56;8.13;;;6.03;;
17451;SDS011;8843;48.838;9.324;2024-01-30T03:02:23;11.00;;;6.53;;
17451;SDS011;8843;48.838;9.324;2024-01-30T03:04:50;9.70;;;5.87;;
17451;SDS011;8843;48.838;9.324;2024-01-30T03:07:17;6.13;;;5.20;;
17451;SDS011;8843;48.838;9.324;2024-01-30T03:09:44;8.13;;;6.10;;
17451;SDS011;8843;48.838;9.324;2024-01-30T03:12:11;8.23;;;5.97;;
17451;SDS011;8843;48.838;9.324;2024-01-30T03:14:39;8.13;;;5.83;;
17451;SDS011;8843;48.838;9.324;2024-01-30T03:17:06;7.77;;;5.70;;
17451;SDS011;8843;48.838;9.324;2024-01-30T03:19:33;8.97;;;5.80;;
17451;SDS011;8843;48.838;9.324;2024-01-30T03:22:00;6.83;;;4.83;;
17451;SDS011;8843;48.838;9.324;2024-01-30T03:24:27;6.47;;;5.83;;
17451;SDS011;8843;48.838;9.324;2024-01-30T03:26:53;8.17;;;5.60;;
17451;SDS011;8843;48.838;9.324;2024-01-30T03:29:20;7.87;;;5.20;;
17451;SDS011;8843;48.838;9.324;2024-01-30T03:31:48;10.40;;;5.77;;
17451;SDS011;8843;48.838;9.324;2024-01-30T03:34:15;8.63;;;5.60;;
17451;SDS011;8843;48.838;9.324;2024-01-30T03:36:42;8.03;;;5.50;;
17451;SDS011;8843;48.838;9.324;2024-01-30T03:39:09;8.27;;;5.23;;
17451;SDS011;8843;48.838;9.324;2024-01-30T03:41:36;7.97;;;5.57;;
17451;SDS011;8843;48.838;9.324;2024-01-30T03:44:03;8.33;;;6.17;;
17451;SDS011;8843;48.838;9.324;2024-01-30T03:46:29;8.03;;;6.10;;
17451;SDS011;8843;48.838;9.324;2024-01-30T03:48:58;7.33;;;4.97;;
17451;SDS011;8843;48.838;9.324;2024-01-30T03:51:24;6.97;;;5.60;;
17451;SDS011;8843;48.838;9.324;2024-01-30T03:53:51;7.77;;;5.13;;
17451;SDS011;8843;48.838;9.324;2024-01-30T03:56:18;7.37;;;5.40;;
17451;SDS011;8843;48.838;9.324;2024-01-30T03:58:45;7.13;;;4.70;;
17451;SDS011;8843;48.838;9.324;2024-01-30T04:01:13;7.30;;;5.73;;
17451;SDS011;8843;48.838;9.324;2024-01-30T04:03:40;6.27;;;4.87;;
17451;SDS011;8843;48.838;9.324;2024-01-30T04:06:10;6.33;;;4.87;;
17451;SDS011;8843;48.838;9.324;2024-01-30T04:08:37;5.93;;;4.57;;
17451;SDS011;8843;48.838;9.324;2024-01-30T04:11:04;7.33;;;5.17;;
17451;SDS011;8843;48.838;9.324;2024-01-30T04:13:31;7.00;;;4.87;;
17451;SDS011;8843;48.838;9.324;2024-01-30T04:15:58;5.43;;;4.43;;
17451;SDS011;8843;48.838;9.324;2024-01-30T04:18:26;8.03;;;5.43;;
17451;SDS011;8843;48.838;9.324;2024-01-30T04:20:53;5.73;;;4.63;;
17451;SDS011;8843;48.838;9.324;2024-01-30T04:23:21;6.07;;;4.70;;
17451;SDS011;8843;48.838;9.324;2024-01-30T04:25:48;5.20;;;4.63;;
17451;SDS011;8843;48.838;9.324;2024-01-30T04:28:15;6.33;;;4.87;;
17451;SDS011;8843;48.838;9.324;2024-01-30T04:30:42;7.87;;;4.90;;
17451;SDS011;8843;48.838;9.324;2024-01-30T04:33:09;6.60;;;5.17;;
17451;SDS011;8843;48.838;9.324;2024-01-30T04:35:36;7.23;;;4.67;;
17451;SDS011;8843;48.838;9.324;2024-01-30T04:38:03;6.03;;;5.10;;
17451;SDS011;8843;48.838;9.324;2024-01-30T04:40:32;6.47;;;4.43;;
17451;SDS011;8843;48.838;9.324;2024-01-30T04:42:58;6.00;;;4.87;;
17451;SDS011;8843;48.838;9.324;2024-01-30T04:45:25;5.27;;;4.60;;
17451;SDS011;8843;48.838;9.324;2024-01-30T04:47:52;7.77;;;5.03;;
17451;SDS011;8843;48.838;9.324;2024-01-30T04:50:19;8.47;;;5.50;;
17451;SDS011;8843;48.838;9.324;2024-01-30T04:52:46;7.50;;;5.47;;
17451;SDS011;8843;48.838;9.324;2024-01-30T04:55:13;6.90;;;4.90;;
17451;SDS011;8843;48.838;9.324;2024-01-30T04:57:41;9.07;;;5.13;;
17451;SDS011;8843;48.838;9.324;2024-01-30T05:00:08;6.30;;;4.83;;
17451;SDS011;8843;48.838;9.324;2024-01-30T05:02:37;7.20;;;5.40;;
17451;SDS011;8843;48.838;9.324;2024-01-30T05:05:04;6.20;;;4.83;;
17451;SDS011;8843;48.838;9.324;2024-01-30T05:07:32;6.20;;;4.83;;
17451;SDS011;8843;48.838;9.324;2024-01-30T05:09:59;7.20;;;5.60;;
17451;SDS011;8843;48.838;9.324;2024-01-30T05:12:26;7.00;;;5.10;;
17451;SDS011;8843;48.838;9.324;2024-01-30T05:14:54;6.93;;;5.30;;
17451;SDS011;8843;48.838;9.324;2024-01-30T05:17:21;7.97;;;5.47;;
17451;SDS011;8843;48.838;9.324;2024-01-30T05:19:48;6.33;;;4.90;;
17451;SDS011;8843;48.838;9.324;2024-01-30T05:22:15;8.50;;;5.10;;
17451;SDS011;8843;48.838;9.324;2024-01-30T05:24:43;7.10;;;4.90;;
17451;SDS011;8843;48.838;9.324;2024-01-30T05:27:10;5.53;;;4.93;;
17451;SDS011;8843;48.838;9.324;2024-01-30T05:29:38;6.87;;;5.60;;
17451;SDS011;8843;48.838;9.324;2024-01-30T05:32:06;6.40;;;4.60;;
17451;SDS011;8843;48.838;9.324;2024-01-30T05:34:33;5.00;;;4.40;;
17451;SDS011;8843;48.838;9.324;2024-01-30T05:37:01;5.73;;;4.70;;
17451;SDS011;8843;48.838;9.324;2024-01-30T05:39:28;6.53;;;5.17;;
17451;SDS011;8843;48.838;9.324;2024-01-30T05:41:57;6.93;;;5.33;;
17451;SDS011;8843;48.838;9.324;2024-01-30T05:44:24;7.70;;;5.90;;
17451;SDS011;8843;48.838;9.324;2024-01-30T05:46:51;6.93;;;5.63;;
17451;SDS011;8843;48.838;9.324;2024-01-30T05:49:19;6.97;;;5.70;;
17451;SDS011;8843;48.838;9.324;2024-01-30T05:51:46;7.17;;;5.30;;
17451;SDS011;8843;48.838;9.324;2024-01-30T05:54:13;6.67;;;5.03;;
17451;SDS011;8843;48.838;9.324;2024-01-30T05:56:40;7.50;;;5.27;;
17451;SDS011;8843;48.838;9.324;2024-01-30T05:59:07;7.47;;;5.47;;
17451;SDS011;8843;48.838;9.324;2024-01-30T06:01:34;10.17;;;7.50;;
17451;SDS011;8843;48.838;9.324;2024-01-30T06:04:01;10.30;;;7.73;;
17451;SDS011;8843;48.838;9.324;2024-01-30T06:06:29;10.93;;;7.90;;
17451;SDS011;8843;48.838;9.324;2024-01-30T06:08:56;10.50;;;7.07;;
17451;SDS011;8843;48.838;9.324;2024-01-30T06:11:23;8.77;;;6.30;;
17451;SDS011;8843;48.838;9.324;2024-01-30T06:13:49;10.83;;;5.80;;
17451;SDS011;8843;48.838;9.324;2024-01-30T06:16:16;7.40;;;5.20;;
17451;SDS011;8843;48.838;9.324;2024-01-30T06:18:44;8.27;;;5.37;;
17451;SDS011;8843;48.838;9.324;2024-01-30T06:21:11;7.70;;;5.40;;
17451;SDS011;8843;48.838;9.324;2024-01-30T06:23:39;9.70;;;5.97;;
17451;SDS011;8843;48.838;9.324;2024-01-30T06:26:06;8.93;;;5.90;;
17451;SDS011;8843;48.838;9.324;2024-01-30T06:28:33;8.33;;;5.80;;
17451;SDS011;8843;48.838;9.324;2024-01-30T06:31:00;7.50;;;5.70;;
17451;SDS011;8843;48.838;9.324;2024-01-30T06:33:27;7.87;;;6.00;;
17451;SDS011;8843;48.838;9.324;2024-01-30T06:35:54;8.17;;;6.07;;
17451;SDS011;8843;48.838;9.324;2024-01-30T06:38:21;9.67;;;5.87;;
17451;SDS011;8843;48.838;9.324;2024-01-30T06:40:49;7.90;;;6.07;;
17451;SDS011;8843;48.838;9.324;2024-01-30T06:43:16;9.37;;;6.40;;
17451;SDS011;8843;48.838;9.324;2024-01-30T06:45:43;9.40;;;6.73;;
17451;SDS011;8843;48.838;9.324;2024-01-30T06:48:10;8.27;;;6.30;;
17451;SDS011;8843;48.838;9.324;2024-01-30T06:50:36;7.43;;;5.90;;
17451;SDS011;8843;48.838;9.324;2024-01-30T06:53:03;9.33;;;6.60;;
17451;SDS011;8843;48.838;9.324;2024-01-30T06:55:30;10.70;;;6.63;;
17451;SDS011;8843;48.838;9.324;2024-01-30T06:57:58;7.73;;;5.77;;
17451;SDS011;8843;48.838;9.324;2024-01-30T07:00:25;8.10;;;6.30;;
17451;SDS011;8843;48.838;9.324;2024-01-30T07:02:52;7.47;;;6.17;;
17451;SDS011;8843;48.838;9.324;2024-01-30T07:05:19;8.27;;;6.53;;
17451;SDS011;8843;48.838;9.324;2024-01-30T07:07:47;6.87;;;5.87;;
17451;SDS011;8843;48.838;9.324;2024-01-30T07:10:14;9.40;;;6.10;;
17451;SDS011;8843;48.838;9.324;2024-01-30T07:12:40;7.30;;;6.10;;
17451;SDS011;8843;48.838;9.324;2024-01-30T07:15:09;8.50;;;5.77;;
17451;SDS011;8843;48.838;9.324;2024-01-30T07:17:36;8.27;;;5.90;;
17451;SDS011;8843;48.838;9.324;2024-01-30T07:20:03;7.90;;;5.80;;
17451;SDS011;8843;48.838;9.324;2024-01-30T07:22:32;10.03;;;5.53;;
17451;SDS011;8843;48.838;9.324;2024-01-30T07:24:59;7.97;;;4.93;;
17451;SDS011;8843;48.838;9.324;2024-01-30T07:27:26;6.90;;;5.60;;
17451;SDS011;8843;48.838;9.324;2024-01-30T07:29:53;7.27;;;5.63;;
17451;SDS011;8843;48.838;9.324;2024-01-30T07:32:21;7.50;;;5.83;;
17451;SDS011;8843;48.838;9.324;2024-01-30T07:34:48;9.63;;;6.40;;
17451;SDS011;8843;48.838;9.324;2024-01-30T07:37:15;8.17;;;5.77;;
17451;SDS011;8843;48.838;9.324;2024-01-30T07:39:42;8.97;;;6.23;;
17451;SDS011;8843;48.838;9.324;2024-01-30T07:42:09;11.43;;;5.93;;
17451;SDS011;8843;48.838;9.324;2024-01-30T07:44:36;7.80;;;5.70;;
17451;SDS011;8843;48.838;9.324;2024-01-30T07:47:04;9.53;;;5.50;;
17451;SDS011;8843;48.838;9.324;2024-01-30T07:49:33;7.03;;;5.97;;
17451;SDS011;8843;48.838;9.324;2024-01-30T07:52:00;7.13;;;5.70;;
17451;SDS011;8843;48.838;9.324;2024-01-30T07:54:30;10.77;;;6.03;;
17451;SDS011;8843;48.838;9.324;2024-01-30T07:56:58;7.40;;;6.00;;
17451;SDS011;8843;48.838;9.324;2024-01-30T07:59:25;9.30;;;6.13;;
17451;SDS011;8843;48.838;9.324;2024-01-30T08:01:52;8.23;;;5.57;;
17451;SDS011;8843;48.838;9.324;2024-01-30T08:04:19;7.77;;;5.77;;
17451;SDS011;8843;48.838;9.324;2024-01-30T08:06:47;12.50;;;6.10;;
17451;SDS011;8843;48.838;9.324;2024-01-30T08:09:14;10.80;;;6.13;;
17451;SDS011;8843;48.838;9.324;2024-01-30T08:11:41;9.30;;;6.43;;
17451;SDS011;8843;48.838;9.324;2024-01-30T08:14:08;10.70;;;6.27;;
17451;SDS011;8843;48.838;9.324;2024-01-30T08:16:35;7.60;;;5.97;;
17451;SDS011;8843;48.838;9.324;2024-01-30T08:19:02;11.00;;;6.47;;
17451;SDS011;8843;48.838;9.324;2024-01-30T08:21:29;7.87;;;6.33;;
17451;SDS011;8843;48.838;9.324;2024-01-30T08:24:02;7.83;;;5.57;;
17451;SDS011;8843;48.838;9.324;2024-01-30T08:26:29;9.83;;;6.13;;
17451;SDS011;8843;48.838;9.324;2024-01-30T08:28:56;7.23;;;5.93;;
17451;SDS011;8843;48.838;9.324;2024-01-30T08:31:23;8.33;;;5.80;;
17451;SDS011;8843;48.838;9.324;2024-01-30T08:33:50;11.13;;;6.47;;
17451;SDS011;8843;48.838;9.324;2024-01-30T08:36:17;12.57;;;7.30;;
17451;SDS011;8843;48.838;9.324;2024-01-30T08:38:44;9.90;;;6.30;;
17451;SDS011;8843;48.838;9.324;2024-01-30T08:41:12;8.90;;;6.80;;
17451;SDS011;8843;48.838;9.324;2024-01-30T08:43:39;11.47;;;7.30;;
17451;SDS011;8843;48.838;9.324;2024-01-30T08:46:06;10.57;;;7.40;;
17451;SDS011;8843;48.838;9.324;2024-01-30T08:48:33;9.13;;;6.33;;
17451;SDS011;8843;48.838;9.324;2024-01-30T08:51:02;12.27;;;7.83;;
17451;SDS011;8843;48.838;9.324;2024-01-30T08:53:33;10.07;;;7.20;;
17451;SDS011;8843;48.838;9.324;2024-01-30T08:56:00;8.63;;;6.63;;
17451;SDS011;8843;48.838;9.324;2024-01-30T08:58:28;11.00;;;7.47;;
17451;SDS011;8843;48.838;9.324;2024-01-30T09:00:56;12.63;;;7.40;;
17451;SDS011;8843;48.838;9.324;2024-01-30T09:03:22;8.07;;;6.27;;
17451;SDS011;8843;48.838;9.324;2024-01-30T09:05:49;8.93;;;7.13;;
17451;SDS011;8843;48.838;9.324;2024-01-30T09:08:16;10.73;;;6.47;;
17451;SDS011;8843;48.838;9.324;2024-01-30T09:10:43;7.87;;;6.27;;
17451;SDS011;8843;48.838;9.324;2024-01-30T09:13:10;9.20;;;6.17;;
17451;SDS011;8843;48.838;9.324;2024-01-30T09:15:39;9.97;;;6.27;;
17451;SDS011;8843;48.838;9.324;2024-01-30T09:18:06;8.70;;;6.33;;
17451;SDS011;8843;48.838;9.324;2024-01-30T09:20:33;7.73;;;6.20;;
17451;SDS011;8843;48.838;9.324;2024-01-30T09:23:00;7.77;;;6.03;;
17451;SDS011;8843;48.838;9.324;2024-01-30T09:25:27;8.50;;;6.13;;
17451;SDS011;8843;48.838;9.324;2024-01-30T09:27:54;8.63;;;6.90;;
17451;SDS011;8843;48.838;9.324;2024-01-30T09:30:21;8.93;;;6.70;;
17451;SDS011;8843;48.838;9.324;2024-01-30T09:32:49;10.50;;;7.10;;
17451;SDS011;8843;48.838;9.324;2024-01-30T09:35:16;9.63;;;7.03;;
17451;SDS011;8843;48.838;9.324;2024-01-30T09:37:42;9.73;;;6.87;;
17451;SDS011;8843;48.838;9.324;2024-01-30T09:40:09;13.50;;;7.20;;
17451;SDS011;8843;48.838;9.324;2024-01-30T09:42:37;8.47;;;6.23;;
17451;SDS011;8843;48.838;9.324;2024-01-30T09:45:04;9.70;;;7.30;;
17451;SDS011;8843;48.838;9.324;2024-01-30T09:47:32;9.20;;;6.70;;
17451;SDS011;8843;48.838;9.324;2024-01-30T09:50:05;10.70;;;6.87;;
17451;SDS011;8843;48.838;9.324;2024-01-30T09:52:33;8.13;;;6.50;;
17451;SDS011;8843;48.838;9.324;2024-01-30T09:55:00;8.40;;;6.93;;
17451;SDS011;8843;48.838;9.324;2024-01-30T09:57:27;12.03;;;7.73;;
17451;SDS011;8843;48.838;9.324;2024-01-30T09:59:54;12.03;;;7.27;;
17451;SDS011;8843;48.838;9.324;2024-01-30T10:02:22;9.27;;;7.07;;
17451;SDS011;8843;48.838;9.324;2024-01-30T10:04:49;10.30;;;7.43;;
17451;SDS011;8843;48.838;9.324;2024-01-30T10:07:18;9.67;;;6.93;;
17451;SDS011;8843;48.838;9.324;2024-01-30T10:09:45;11.57;;;7.37;;
17451;SDS011;8843;48.838;9.324;2024-01-30T10:12:14;10.30;;;7.40;;
17451;SDS011;8843;48.838;9.324;2024-01-30T10:14:41;11.77;;;7.53;;
17451;SDS011;8843;48.838;9.324;2024-01-30T10:17:09;13.00;;;7.90;;
17451;SDS011;8843;48.838;9.324;2024-01-30T10:19:37;13.80;;;9.10;;
17451;SDS011;8843;48.838;9.324;2024-01-30T10:22:04;12.77;;;8.00;;
17451;SDS011;8843;48.838;9.324;2024-01-30T10:24:32;16.43;;;8.10;;
17451;SDS011;8843;48.838;9.324;2024-01-30T10:27:00;14.63;;;8.83;;
17451;SDS011;8843;48.838;9.324;2024-01-30T10:29:27;10.93;;;7.50;;
17451;SDS011;8843;48.838;9.324;2024-01-30T10:31:57;13.63;;;8.23;;
17451;SDS011;8843;48.838;9.324;2024-01-30T10:34:25;11.23;;;7.67;;
17451;SDS011;8843;48.838;9.324;2024-01-30T10:36:59;10.13;;;7.50;;
17451;SDS011;8843;48.838;9.324;2024-01-30T10:39:39;11.00;;;7.30;;
17451;SDS011;8843;48.838;9.324;2024-01-30T10:42:06;13.67;;;7.47;;
17451;SDS011;8843;48.838;9.324;2024-01-30T10:44:37;10.90;;;7.73;;
17451;SDS011;8843;48.838;9.324;2024-01-30T10:47:11;14.40;;;7.47;;
17451;SDS011;8843;48.838;9.324;2024-01-30T10:49:39;11.30;;;7.53;;
17451;SDS011;8843;48.838;9.324;2024-01-30T10:52:09;10.40;;;7.30;;
17451;SDS011;8843;48.838;9.324;2024-01-30T10:54:36;12.27;;;7.50;;
17451;SDS011;8843;48.838;9.324;2024-01-30T10:57:06;13.67;;;8.43;;
17451;SDS011;8843;48.838;9.324;2024-01-30T10:59:35;10.80;;;7.73;;
17451;SDS011;8843;48.838;9.324;2024-01-30T11:02:02;11.83;;;8.10;;
17451;SDS011;8843;48.838;9.324;2024-01-30T11:04:35;12.57;;;8.17;;
17451;SDS011;8843;48.838;9.324;2024-01-30T11:07:02;14.57;;;8.13;;
17451;SDS011;8843;48.838;9.324;2024-01-30T11:09:41;12.13;;;8.07;;
17451;SDS011;8843;48.838;9.324;2024-01-30T11:12:14;17.40;;;9.33;;
17451;SDS011;8843;48.838;9.324;2024-01-30T11:14:41;14.37;;;9.37;;
17451;SDS011;8843;48.838;9.324;2024-01-30T11:17:09;15.23;;;9.13;;
17451;SDS011;8843;48.838;9.324;2024-01-30T11:19:37;12.37;;;8.83;;
17451;SDS011;8843;48.838;9.324;2024-01-30T11:22:06;15.17;;;9.20;;
17451;SDS011;8843;48.838;9.324;2024-01-30T11:24:36;16.57;;;8.90;;
17451;SDS011;8843;48.838;9.324;2024-01-30T11:27:09;15.37;;;9.57;;
17451;SDS011;8843;48.838;9.324;2024-01-30T11:29:40;13.10;;;8.63;;
17451;SDS011;8843;48.838;9.324;2024-01-30T11:32:07;12.60;;;8.67;;
17451;SDS011;8843;48.838;9.324;2024-01-30T11:34:34;12.73;;;8.50;;
17451;SDS011;8843;48.838;9.324;2024-01-30T11:37:03;13.33;;;8.20;;
17451;SDS011;8843;48.838;9.324;2024-01-30T11:39:35;16.20;;;8.17;;
17451;SDS011;8843;48.838;9.324;2024-01-30T11:42:06;13.60;;;8.10;;
17451;SDS011;8843;48.838;9.324;2024-01-30T11:44:34;10.23;;;7.27;;
17451;SDS011;8843;48.838;9.324;2024-01-30T11:47:01;17.83;;;9.67;;
17451;SDS011;8843;48.838;9.324;2024-01-30T11:49:29;12.93;;;9.13;;
17451;SDS011;8843;48.838;9.324;2024-01-30T11:51:56;13.17;;;7.53;;
17451;SDS011;8843;48.838;9.324;2024-01-30T11:54:23;12.10;;;8.10;;
17451;SDS011;8843;48.838;9.324;2024-01-30T11:56:50;17.37;;;8.40;;
17451;SDS011;8843;48.838;9.324;2024-01-30T11:59:18;12.33;;;7.83;;
17451;SDS011;8843;48.838;9.324;2024-01-30T12:01:45;10.67;;;7.93;;
17451;SDS011;8843;48.838;9.324;2024-01-30T12:04:12;15.97;;;7.90;;
17451;SDS011;8843;48.838;9.324;2024-01-30T12:06:39;11.10;;;7.70;;
17451;SDS011;8843;48.838;9.324;2024-01-30T12:09:06;10.70;;;7.87;;
17451;SDS011;8843;48.838;9.324;2024-01-30T12:11:43;15.37;;;8.50;;
17451;SDS011;8843;48.838;9.324;2024-01-30T12:14:10;12.30;;;7.70;;
17451;SDS011;8843;48.838;9.324;2024-01-30T12:16:39;13.03;;;8.87;;
17451;SDS011;8843;48.838;9.324;2024-01-30T12:19:07;12.97;;;8.50;;
17451;SDS011;8843;48.838;9.324;2024-01-30T12:21:34;15.33;;;9.80;;
17451;SDS011;8843;48.838;9.324;2024-01-30T12:24:01;13.43;;;9.07;;
17451;SDS011;8843;48.838;9.324;2024-01-30T12:26:29;13.67;;;8.80;;
17451;SDS011;8843;48.838;9.324;2024-01-30T12:28:56;11.33;;;7.97;;
17451;SDS011;8843;48.838;9.324;2024-01-30T12:31:27;13.00;;;9.10;;
17451;SDS011;8843;48.838;9.324;2024-01-30T12:33:56;16.30;;;9.77;;
17451;SDS011;8843;48.838;9.324;2024-01-30T12:36:25;12.83;;;8.43;;
17451;SDS011;8843;48.838;9.324;2024-01-30T12:38:52;12.23;;;8.87;;
17451;SDS011;8843;48.838;9.324;2024-01-30T12:41:19;13.83;;;8.03;;
17451;SDS011;8843;48.838;9.324;2024-01-30T12:43:53;14.37;;;7.67;;
17451;SDS011;8843;48.838;9.324;2024-01-30T12:46:20;12.37;;;9.00;;
17451;SDS011;8843;48.838;9.324;2024-01-30T12:48:47;14.23;;;9.93;;
17451;SDS011;8843;48.838;9.324;2024-01-30T12:51:15;12.27;;;7.93;;
17451;SDS011;8843;48.838;9.324;2024-01-30T12:53:42;12.97;;;9.00;;
17451;SDS011;8843;48.838;9.324;2024-01-30T12:56:09;13.27;;;8.67;;
17451;SDS011;8843;48.838;9.324;2024-01-30T12:58:35;13.90;;;9.43;;
17451;SDS011;8843;48.838;9.324;2024-01-30T13:01:02;12.07;;;9.77;;
17451;SDS011;8843;48.838;9.324;2024-01-30T13:03:29;13.53;;;10.20;;
17451;SDS011;8843;48.838;9.324;2024-01-30T13:05:56;12.80;;;10.23;;
17451;SDS011;8843;48.838;9.324;2024-01-30T13:08:25;13.40;;;9.70;;
17451;SDS011;8843;48.838;9.324;2024-01-30T13:10:51;13.27;;;10.43;;
17451;SDS011;8843;48.838;9.324;2024-01-30T13:13:18;13.57;;;9.90;;
17451;SDS011;8843;48.838;9.324;2024-01-30T13:15:45;17.93;;;11.73;;
17451;SDS011;8843;48.838;9.324;2024-01-30T13:18:12;12.27;;;9.80;;
17451;SDS011;8843;48.838;9.324;2024-01-30T13:20:39;14.73;;;10.63;;
17451;SDS011;8843;48.838;9.324;2024-01-30T13:23:06;14.73;;;10.07;;
17451;SDS011;8843;48.838;9.324;2024-01-30T13:25:34;13.73;;;9.27;;
17451;SDS011;8843;48.838;9.324;2024-01-30T13:28:01;11.67;;;8.90;;
17451;SDS011;8843;48.838;9.324;2024-01-30T13:30:28;11.87;;;8.87;;
17451;SDS011;8843;48.838;9.324;2024-01-30T13:32:55;19.63;;;11.27;;
17451;SDS011;8843;48.838;9.324;2024-01-30T13:35:22;15.40;;;11.10;;
17451;SDS011;8843;48.838;9.324;2024-01-30T13:37:49;15.67;;;11.53;;
17451;SDS011;8843;48.838;9.324;2024-01-30T13:40:16;13.87;;;10.67;;
17451;SDS011;8843;48.838;9.324;2024-01-30T13:42:44;12.77;;;9.27;;
17451;SDS011;8843;48.838;9.324;2024-01-30T13:45:11;17.50;;;10.47;;
17451;SDS011;8843;48.838;9.324;2024-01-30T13:47:38;17.03;;;10.17;;
17451;SDS011;8843;48.838;9.324;2024-01-30T13:50:05;14.93;;;9.60;;
17451;SDS011;8843;48.838;9.324;2024-01-30T13:52:33;12.97;;;8.40;;
17451;SDS011;8843;48.838;9.324;2024-01-30T13:55:00;12.80;;;8.93;;
17451;SDS011;8843;48.838;9.324;2024-01-30T13:57:27;13.20;;;8.53;;
17451;SDS011;8843;48.838;9.324;2024-01-30T13:59:55;11.87;;;7.93;;
17451;SDS011;8843;48.838;9.324;2024-01-30T14:02:22;12.10;;;8.07;;
17451;SDS011;8843;48.838;9.324;2024-01-30T14:04:49;9.67;;;7.80;;
17451;SDS011;8843;48.838;9.324;2024-01-30T14:07:16;10.60;;;7.33;;
17451;SDS011;8843;48.838;9.324;2024-01-30T14:09:43;12.17;;;8.53;;
17451;SDS011;8843;48.838;9.324;2024-01-30T14:12:10;14.03;;;8.93;;
17451;SDS011;8843;48.838;9.324;2024-01-30T14:14:37;16.13;;;9.70;;
17451;SDS011;8843;48.838;9.324;2024-01-30T14:17:05;16.77;;;10.63;;
17451;SDS011;8843;48.838;9.324;2024-01-30T14:19:32;15.03;;;8.77;;
17451;SDS011;8843;48.838;9.324;2024-01-30T14:22:00;15.00;;;9.20;;
17451;SDS011;8843;48.838;9.324;2024-01-30T14:24:27;13.47;;;8.50;;
17451;SDS011;8843;48.838;9.324;2024-01-30T14:26:53;12.43;;;8.60;;
17451;SDS011;8843;48.838;9.324;2024-01-30T14:29:20;14.37;;;9.13;;
17451;SDS011;8843;48.838;9.324;2024-01-30T14:31:47;15.53;;;9.27;;
17451;SDS011;8843;48.838;9.324;2024-01-30T14:34:15;10.67;;;9.23;;
17451;SDS011;8843;48.838;9.324;2024-01-30T14:36:43;11.77;;;9.13;;
17451;SDS011;8843;48.838;9.324;2024-01-30T14:39:10;12.83;;;9.57;;
17451;SDS011;8843;48.838;9.324;2024-01-30T14:41:37;11.07;;;8.73;;
17451;SDS011;8843;48.838;9.324;2024-01-30T14:44:04;12.13;;;8.63;;
17451;SDS011;8843;48.838;9.324;2024-01-30T14:46:33;13.03;;;8.97;;
17451;SDS011;8843;48.838;9.324;2024-01-30T14:49:00;14.13;;;11.27;;
17451;SDS011;8843;48.838;9.324;2024-01-30T14:51:31;15.07;;;9.83;;
17451;SDS011;8843;48.838;9.324;2024-01-30T14:53:59;13.10;;;10.43;;